Main page
METAR-TAF:

METAR-TAF

Airports :

Hearne Municipal Airport

Hearne, Texas, United States

latitude: 30-52-18N, longitude: 096-37-20W, elevation: 285 ft

Current weather observation

The report was made 9 minutes ago, at 00:15 UTC
Wind 6 mph from the Southeast
Temperature 66°F
Humidity 88%
Pressure 29.84 in. Hg
Visibility: 10 miles
Broken clouds at a height of 3500 ft
Broken clouds at a height of 4800 ft
Overcast at a height of 5500 ft

METAR: KLHB 230015Z AUTO 14005KT 10SM BKN035 BKN048 OVC055 19/17 A2984 RMK AO2 T01870165

Time: 18:24 (00:24 UTC)


TAF: missing

Weather observations and forecasts of more than 4000 airports (METAR and TAF reports).

The available stations are represented by yellow and red dots on the map.

Hover mouse over dot to see the name of the station.

Then click to see weather observations and forecasts.

To change the map : click on the green buttons with a black cross to zoom in, on the green button with a dash to zoom out, or on the green arrows for adjacent maps.


METAR-TAF: